createdAt,value
2018-04-01T00:00:58.833Z,42.57
2018-04-01T00:03:27.310Z,41.00
2018-04-01T00:05:55.812Z,42.47
2018-04-01T00:08:23.888Z,44.53
2018-04-01T00:10:51.702Z,41.83
2018-04-01T00:13:19.508Z,42.50
2018-04-01T00:15:47.556Z,44.23
2018-04-01T00:18:15.425Z,44.10
2018-04-01T00:20:43.385Z,44.13
2018-04-01T00:23:12.440Z,45.07
2018-04-01T00:25:40.814Z,42.57
2018-04-01T00:28:08.950Z,47.43
2018-04-01T00:30:36.934Z,45.03
2018-04-01T00:33:05.343Z,45.67
2018-04-01T00:35:33.158Z,48.53
2018-04-01T00:38:01.114Z,44.73
2018-04-01T00:40:28.859Z,47.73
2018-04-01T00:42:56.613Z,46.67
2018-04-01T00:45:25.372Z,47.60
2018-04-01T00:47:52.979Z,46.43
2018-04-01T00:50:20.616Z,45.97
2018-04-01T00:52:48.284Z,47.63
2018-04-01T00:55:15.906Z,45.83
2018-04-01T00:57:43.564Z,45.17
2018-04-01T01:00:11.196Z,46.27
2018-04-01T01:02:43.452Z,44.57
2018-04-01T01:05:11.376Z,45.47
2018-04-01T01:07:39.019Z,46.63
2018-04-01T01:10:23.667Z,47.77
2018-04-01T01:12:51.997Z,43.77
2018-04-01T01:15:28.989Z,46.07
2018-04-01T01:17:56.869Z,50.47
2018-04-01T01:20:24.863Z,50.57
2018-04-01T01:22:58.385Z,50.90
2018-04-01T01:25:30.657Z,48.47
2018-04-01T01:27:58.230Z,44.67
2018-04-01T01:30:34.145Z,40.90
2018-04-01T01:33:02.544Z,42.23
2018-04-01T01:35:30.209Z,42.20
2018-04-01T01:37:57.853Z,40.17
2018-04-01T01:40:25.670Z,42.40
2018-04-01T01:42:53.594Z,41.90
2018-04-01T01:45:21.230Z,41.77
2018-04-01T01:47:49.137Z,46.70
2018-04-01T01:50:16.979Z,46.27
2018-04-01T01:52:44.828Z,46.40
2018-04-01T01:55:12.382Z,45.30
2018-04-01T01:57:40.196Z,46.47
2018-04-01T02:00:07.761Z,47.13
2018-04-01T02:02:35.610Z,44.30
2018-04-01T02:05:03.283Z,45.43
2018-04-01T02:07:31.170Z,47.40
2018-04-01T02:09:58.943Z,47.20
2018-04-01T02:12:26.578Z,47.60
2018-04-01T02:14:54.551Z,51.50
2018-04-01T02:17:22.302Z,49.50
2018-04-01T02:19:50.038Z,49.20
2018-04-01T02:22:17.962Z,52.00
2018-04-01T02:24:45.910Z,49.53
2018-04-01T02:27:13.582Z,50.87
2018-04-01T02:29:41.230Z,51.43
2018-04-01T02:32:08.943Z,50.97
2018-04-01T02:34:36.700Z,49.73
2018-04-01T02:37:04.568Z,53.33
2018-04-01T02:39:32.379Z,51.27
2018-04-01T02:42:00.140Z,48.87
2018-04-01T02:44:27.759Z,48.80
2018-04-01T02:46:55.617Z,48.50
2018-04-01T02:49:23.404Z,45.80
2018-04-01T02:51:51.247Z,48.60
2018-04-01T02:54:19.000Z,49.90
2018-04-01T02:56:47.183Z,47.47
2018-04-01T02:59:15.584Z,47.17
2018-04-01T03:01:43.571Z,48.20
2018-04-01T03:04:11.786Z,48.57
2018-04-01T03:06:40.857Z,45.93
2018-04-01T03:09:08.689Z,46.70
2018-04-01T03:11:36.281Z,47.27
2018-04-01T03:14:04.477Z,44.97
2018-04-01T03:16:32.558Z,48.23
2018-04-01T03:19:00.558Z,46.17
2018-04-01T03:21:28.292Z,42.30
2018-04-01T03:23:56.160Z,44.93
2018-04-01T03:26:24.045Z,39.43
2018-04-01T03:28:51.994Z,37.73
2018-04-01T03:31:19.600Z,44.23
2018-04-01T03:33:47.845Z,35.50
2018-04-01T03:36:15.897Z,34.27
2018-04-01T03:38:43.773Z,28.40
2018-04-01T03:41:11.729Z,27.30
2018-04-01T03:43:40.134Z,27.73
2018-04-01T03:46:08.175Z,25.80
2018-04-01T03:48:35.943Z,27.50
2018-04-01T03:51:03.609Z,25.70
2018-04-01T03:53:31.290Z,23.20
2018-04-01T03:55:59.291Z,24.10
2018-04-01T03:58:27.224Z,29.60
2018-04-01T04:00:54.853Z,26.27
2018-04-01T04:03:22.546Z,22.30
2018-04-01T04:05:50.514Z,21.40
2018-04-01T04:08:18.574Z,23.37
2018-04-01T04:10:46.231Z,20.90
2018-04-01T04:13:13.868Z,22.30
2018-04-01T04:15:41.524Z,22.40
2018-04-01T04:18:09.669Z,24.30
2018-04-01T04:20:37.489Z,19.87
2018-04-01T04:23:05.141Z,22.93
2018-04-01T04:25:32.852Z,24.13
2018-04-01T04:28:00.593Z,22.47
2018-04-01T04:30:28.139Z,25.40
2018-04-01T04:32:55.840Z,21.00
2018-04-01T04:35:23.802Z,20.90
2018-04-01T04:37:51.527Z,20.47
2018-04-01T04:40:19.377Z,20.60
2018-04-01T04:42:47.074Z,20.30
2018-04-01T04:45:14.768Z,20.33
2018-04-01T04:47:42.561Z,20.57
2018-04-01T04:50:11.287Z,20.13
2018-04-01T04:52:39.499Z,17.80
2018-04-01T04:55:08.250Z,20.90
2018-04-01T04:57:35.901Z,19.27
2018-04-01T05:00:03.717Z,18.30
2018-04-01T05:02:31.645Z,17.87
2018-04-01T05:04:59.525Z,18.07
2018-04-01T05:07:27.466Z,18.20
2018-04-01T05:09:55.562Z,19.67
2018-04-01T05:12:23.540Z,20.33
2018-04-01T05:14:51.291Z,19.53
2018-04-01T05:17:19.060Z,21.40
2018-04-01T05:19:46.724Z,21.20
2018-04-01T05:22:14.584Z,19.87
2018-04-01T05:24:42.547Z,20.17
2018-04-01T05:27:10.772Z,21.80
2018-04-01T05:29:39.913Z,19.00
2018-04-01T05:32:08.161Z,19.00
2018-04-01T05:34:37.058Z,19.27
2018-04-01T05:37:05.075Z,19.47
2018-04-01T05:39:32.817Z,19.70
2018-04-01T05:42:00.418Z,19.60
2018-04-01T05:44:28.151Z,20.20
2018-04-01T05:46:55.971Z,20.33
2018-04-01T05:49:23.896Z,22.20
2018-04-01T05:51:51.633Z,22.63
2018-04-01T05:54:19.427Z,23.43
2018-04-01T05:56:47.156Z,22.90
2018-04-01T05:59:15.142Z,25.17
2018-04-01T06:01:42.745Z,22.30
2018-04-01T06:04:10.448Z,24.90
2018-04-01T06:06:38.137Z,22.37
2018-04-01T06:09:06.421Z,24.63
2018-04-01T06:11:34.269Z,21.30
2018-04-01T06:14:02.055Z,23.17
2018-04-01T06:16:29.917Z,23.70
2018-04-01T06:18:57.870Z,24.73
2018-04-01T06:21:25.630Z,22.70
2018-04-01T06:23:53.696Z,21.23
2018-04-01T06:26:21.691Z,21.87
2018-04-01T06:28:49.483Z,22.27
2018-04-01T06:31:17.221Z,19.43
2018-04-01T06:33:45.110Z,22.37
2018-04-01T06:36:13.056Z,22.83
2018-04-01T06:38:40.799Z,22.50
2018-04-01T06:41:08.707Z,21.13
2018-04-01T06:43:36.650Z,26.33
2018-04-01T06:46:04.316Z,23.70
2018-04-01T06:48:32.247Z,22.90
2018-04-01T06:51:00.106Z,23.07
2018-04-01T06:53:27.927Z,22.47
2018-04-01T06:55:55.676Z,22.73
2018-04-01T06:58:23.331Z,23.37
2018-04-01T07:01:06.141Z,22.53
2018-04-01T07:03:34.128Z,21.13
2018-04-01T07:06:06.732Z,21.17
2018-04-01T07:08:34.786Z,22.97
2018-04-01T07:11:02.549Z,24.27
2018-04-01T07:13:30.692Z,22.60
2018-04-01T07:15:58.705Z,21.50
2018-04-01T07:18:26.410Z,18.67
2018-04-01T07:20:54.017Z,9.73
2018-04-01T07:23:21.709Z,8.87
2018-04-01T07:25:49.567Z,8.13
2018-04-01T07:28:17.637Z,7.87
2018-04-01T07:30:45.997Z,7.13
2018-04-01T07:33:13.724Z,7.80
2018-04-01T07:35:41.785Z,12.27
2018-04-01T07:38:09.914Z,7.17
2018-04-01T07:40:37.815Z,6.80
2018-04-01T07:43:05.648Z,6.10
2018-04-01T07:45:33.728Z,4.70
2018-04-01T07:48:01.479Z,4.33
2018-04-01T07:50:29.221Z,6.03
2018-04-01T07:52:58.432Z,3.80
2018-04-01T07:55:26.803Z,3.00
2018-04-01T07:57:54.704Z,3.50
2018-04-01T08:00:22.448Z,3.97
2018-04-01T08:02:50.686Z,3.70
2018-04-01T08:05:20.024Z,2.60
2018-04-01T08:07:48.165Z,3.60
2018-04-01T08:10:16.026Z,4.00
2018-04-01T08:12:43.765Z,3.43
2018-04-01T08:15:12.647Z,4.10
2018-04-01T08:17:40.695Z,4.03
2018-04-01T08:20:08.722Z,4.07
2018-04-01T08:22:37.244Z,3.93
2018-04-01T08:25:05.300Z,3.93
2018-04-01T08:27:33.160Z,4.00
2018-04-01T08:30:01.284Z,4.30
2018-04-01T08:32:29.838Z,4.27
2018-04-01T08:34:57.622Z,3.30
2018-04-01T08:37:25.820Z,4.80
2018-04-01T08:39:53.752Z,4.23
2018-04-01T08:42:21.604Z,4.20
2018-04-01T08:44:49.420Z,3.33
2018-04-01T08:47:17.534Z,3.65
2018-04-01T08:49:45.517Z,3.17
2018-04-01T08:52:13.587Z,3.30
2018-04-01T08:54:41.619Z,3.37
2018-04-01T08:57:09.673Z,3.45
2018-04-01T08:59:38.123Z,3.20
2018-04-01T09:02:06.290Z,2.80
2018-04-01T09:04:34.887Z,3.30
2018-04-01T09:07:02.978Z,2.70
2018-04-01T09:09:31.265Z,2.70
2018-04-01T09:11:59.773Z,2.50
2018-04-01T09:14:28.069Z,1.90
2018-04-01T09:16:56.484Z,2.03
2018-04-01T09:19:24.647Z,1.83
2018-04-01T09:21:53.061Z,1.70
2018-04-01T09:24:22.717Z,1.90
2018-04-01T09:26:50.841Z,1.30
2018-04-01T09:29:19.129Z,2.60
2018-04-01T09:31:47.284Z,2.00
2018-04-01T09:34:15.653Z,1.40
2018-04-01T09:36:45.745Z,2.20
2018-04-01T09:39:15.114Z,2.80
2018-04-01T09:41:43.835Z,1.13
2018-04-01T09:44:12.939Z,1.70
2018-04-01T09:46:41.120Z,1.73
2018-04-01T09:49:10.829Z,1.20
2018-04-01T09:51:39.603Z,1.43
2018-04-01T09:54:09.724Z,1.53
2018-04-01T09:56:37.759Z,1.40
2018-04-01T09:59:08.002Z,1.30
2018-04-01T10:01:36.502Z,1.20
2018-04-01T10:04:05.479Z,1.53
2018-04-01T10:06:34.566Z,1.60
2018-04-01T10:09:04.824Z,1.20
2018-04-01T10:11:33.694Z,1.40
2018-04-01T10:14:02.657Z,1.60
2018-04-01T10:16:32.239Z,2.30
2018-04-01T10:19:01.096Z,1.63
2018-04-01T10:21:30.366Z,1.60
2018-04-01T10:23:59.283Z,1.37
2018-04-01T10:26:28.126Z,2.50
2018-04-01T10:28:57.560Z,2.70
2018-04-01T10:31:26.849Z,1.37
2018-04-01T10:33:56.010Z,1.40
2018-04-01T10:36:25.589Z,2.10
2018-04-01T10:38:54.664Z,1.20
2018-04-01T10:41:37.970Z,1.90
2018-04-01T10:44:07.088Z,1.27
2018-04-01T10:46:36.361Z,1.80
2018-04-01T10:49:05.119Z,1.80
2018-04-01T10:51:34.488Z,2.10
2018-04-01T10:54:03.338Z,2.57
2018-04-01T10:56:31.964Z,2.60
2018-04-01T10:59:00.427Z,3.20
2018-04-01T11:01:28.905Z,2.67
2018-04-01T11:03:57.168Z,3.43
2018-04-01T11:06:25.566Z,4.13
2018-04-01T11:08:53.552Z,4.60
2018-04-01T11:11:22.240Z,6.97
2018-04-01T11:13:51.109Z,4.57
2018-04-01T11:16:18.854Z,5.50
2018-04-01T11:18:46.628Z,7.20
2018-04-01T11:21:14.461Z,7.37
2018-04-01T11:23:42.321Z,6.13
2018-04-01T11:26:10.532Z,6.90
2018-04-01T11:28:38.566Z,9.90
2018-04-01T11:31:08.453Z,7.03
2018-04-01T11:33:37.138Z,7.68
2018-04-01T11:36:05.626Z,9.70
2018-04-01T11:38:37.011Z,9.30
2018-04-01T11:41:06.438Z,9.27
2018-04-01T11:43:35.178Z,9.48
2018-04-01T11:46:03.485Z,7.83
2018-04-01T11:48:31.813Z,7.37
2018-04-01T11:51:00.935Z,7.83
2018-04-01T11:53:33.694Z,8.60
2018-04-01T11:56:02.572Z,7.67
2018-04-01T11:58:31.849Z,8.10
2018-04-01T12:01:00.120Z,8.10
2018-04-01T12:03:29.873Z,7.33
2018-04-01T12:05:58.784Z,7.87
2018-04-01T12:08:26.550Z,7.33
2018-04-01T12:10:54.279Z,8.17
2018-04-01T12:13:22.835Z,8.80
2018-04-01T12:15:51.168Z,9.80
2018-04-01T12:18:20.338Z,10.10
2018-04-01T12:20:49.071Z,10.00
2018-04-01T12:23:16.876Z,8.83
2018-04-01T12:25:44.761Z,8.90
2018-04-01T12:28:12.566Z,10.07
2018-04-01T12:30:41.463Z,9.13
2018-04-01T12:33:10.279Z,10.90
2018-04-01T12:35:39.541Z,10.40
2018-04-01T12:38:08.353Z,10.20
2018-04-01T12:40:37.438Z,10.67
2018-04-01T12:43:05.630Z,10.03
2018-04-01T12:45:34.987Z,9.93
2018-04-01T12:48:04.665Z,9.97
2018-04-01T12:50:33.197Z,9.50
2018-04-01T12:53:01.580Z,10.27
2018-04-01T12:55:29.751Z,10.20
2018-04-01T12:57:57.901Z,10.40
2018-04-01T13:00:26.321Z,11.93
2018-04-01T13:02:54.321Z,10.73
2018-04-01T13:05:24.354Z,12.20
2018-04-01T13:07:53.307Z,11.60
2018-04-01T13:10:21.400Z,12.37
2018-04-01T13:12:49.684Z,12.00
2018-04-01T13:15:17.852Z,13.37
2018-04-01T13:17:46.268Z,12.90
2018-04-01T13:20:14.360Z,14.37
2018-04-01T13:22:43.012Z,13.63
2018-04-01T13:25:10.938Z,12.67
2018-04-01T13:27:39.646Z,14.37
2018-04-01T13:30:08.820Z,13.90
2018-04-01T13:32:38.487Z,14.97
2018-04-01T13:35:07.468Z,15.13
2018-04-01T13:37:35.851Z,17.77
2018-04-01T13:40:03.817Z,15.60
2018-04-01T13:42:37.503Z,17.20
2018-04-01T13:45:05.975Z,15.57
2018-04-01T13:47:34.391Z,15.80
2018-04-01T13:50:02.850Z,17.33
2018-04-01T13:52:31.211Z,16.80
2018-04-01T13:54:59.454Z,17.47
2018-04-01T13:57:28.081Z,15.60
2018-04-01T13:59:56.523Z,19.47
2018-04-01T14:02:25.379Z,17.03
2018-04-01T14:04:53.772Z,18.33
2018-04-01T14:07:22.240Z,19.20
2018-04-01T14:09:50.303Z,24.70
2018-04-01T14:12:18.312Z,19.05
2018-04-01T14:14:46.864Z,15.60
2018-04-01T14:17:15.031Z,15.25
2018-04-01T14:19:43.294Z,16.40
2018-04-01T14:22:11.374Z,22.50
2018-04-01T14:24:42.187Z,16.70
2018-04-01T14:27:10.307Z,24.33
2018-04-01T14:29:39.660Z,21.17
2018-04-01T14:32:07.808Z,21.90
2018-04-01T14:34:35.842Z,22.20
2018-04-01T14:37:05.545Z,28.87
2018-04-01T14:39:34.464Z,16.97
2018-04-01T14:42:02.167Z,33.13
2018-04-01T14:44:30.321Z,26.77
2018-04-01T14:46:59.408Z,15.70
2018-04-01T14:49:27.440Z,30.77
2018-04-01T14:51:55.297Z,18.03
2018-04-01T14:54:23.462Z,16.50
2018-04-01T14:56:51.345Z,23.73
2018-04-01T14:59:19.580Z,22.80
2018-04-01T15:01:48.302Z,16.43
2018-04-01T15:07:06.378Z,19.10
2018-04-01T15:12:12.126Z,17.95
2018-04-01T15:14:40.411Z,17.50
2018-04-01T15:17:09.476Z,20.67
2018-04-01T15:19:38.038Z,17.27
2018-04-01T15:22:06.780Z,16.53
2018-04-01T15:24:36.075Z,18.23
2018-04-01T15:27:05.973Z,16.23
2018-04-01T15:29:35.357Z,16.60
2018-04-01T15:32:07.266Z,16.05
2018-04-01T15:34:37.610Z,16.50
2018-04-01T15:37:08.156Z,17.20
2018-04-01T15:39:37.460Z,15.47
2018-04-01T15:42:11.002Z,17.62
2018-04-01T15:44:41.856Z,16.80
2018-04-01T15:47:14.532Z,16.75
2018-04-01T15:49:44.875Z,18.03
2018-04-01T15:52:14.710Z,18.10
2018-04-01T15:54:42.744Z,18.92
2018-04-01T15:57:10.765Z,20.45
2018-04-01T15:59:39.748Z,19.13
2018-04-01T16:02:09.945Z,21.65
2018-04-01T16:04:40.522Z,21.57
2018-04-01T16:07:08.741Z,21.35
2018-04-01T16:09:38.814Z,21.13
2018-04-01T16:12:06.906Z,21.20
2018-04-01T16:14:36.284Z,20.47
2018-04-01T16:17:04.789Z,21.70
2018-04-01T16:19:34.483Z,21.23
2018-04-01T16:22:02.331Z,22.73
2018-04-01T16:24:39.934Z,23.35
2018-04-01T16:27:08.429Z,25.37
2018-04-01T16:29:36.351Z,24.47
2018-04-01T16:32:09.084Z,24.80
2018-04-01T16:34:37.841Z,27.20
2018-04-01T16:37:07.618Z,25.63
2018-04-01T16:39:36.024Z,25.93
2018-04-01T16:42:03.679Z,27.23
2018-04-01T16:44:31.335Z,26.30
2018-04-01T16:46:58.905Z,25.60
2018-04-01T16:49:26.503Z,26.63
2018-04-01T16:51:54.144Z,28.37
2018-04-01T16:54:21.718Z,26.70
2018-04-01T16:56:49.312Z,27.67
2018-04-01T16:59:16.935Z,26.60
2018-04-01T17:01:44.527Z,28.13
2018-04-01T17:04:12.273Z,27.87
2018-04-01T17:06:39.924Z,29.47
2018-04-01T17:09:07.520Z,27.50
2018-04-01T17:11:35.128Z,29.20
2018-04-01T17:14:02.726Z,29.67
2018-04-01T17:16:30.377Z,28.47
2018-04-01T17:18:57.966Z,29.67
2018-04-01T17:21:25.571Z,29.27
2018-04-01T17:23:53.162Z,27.83
2018-04-01T17:26:20.723Z,30.47
2018-04-01T17:28:48.328Z,30.20
2018-04-01T17:31:15.920Z,31.95
2018-04-01T17:33:43.601Z,33.43
2018-04-01T17:36:11.175Z,31.40
2018-04-01T17:38:38.761Z,33.30
2018-04-01T17:41:06.296Z,31.10
2018-04-01T17:43:33.886Z,31.73
2018-04-01T17:46:01.497Z,32.77
2018-04-01T17:48:29.135Z,33.67
2018-04-01T17:50:56.859Z,29.60
2018-04-01T17:53:24.403Z,32.37
2018-04-01T17:55:52.103Z,33.73
2018-04-01T17:58:19.695Z,30.40
2018-04-01T18:00:47.300Z,31.55
2018-04-01T18:03:14.885Z,32.30
2018-04-01T18:05:42.459Z,28.10
2018-04-01T18:08:10.066Z,25.77
2018-04-01T18:10:37.639Z,26.20
2018-04-01T18:13:05.240Z,29.20
2018-04-01T18:15:32.861Z,26.20
2018-04-01T18:18:00.493Z,27.20
2018-04-01T18:20:28.116Z,27.97
2018-04-01T18:22:55.667Z,27.20
2018-04-01T18:25:23.248Z,25.73
2018-04-01T18:27:50.785Z,26.13
2018-04-01T18:30:18.320Z,26.10
2018-04-01T18:32:45.914Z,25.93
2018-04-01T18:35:13.476Z,32.07
2018-04-01T18:37:41.007Z,32.17
2018-04-01T18:40:08.651Z,40.17
2018-04-01T18:42:36.972Z,45.67
2018-04-01T18:45:04.822Z,50.58
2018-04-01T18:47:32.429Z,54.90
2018-04-01T18:49:59.975Z,56.00
2018-04-01T18:52:27.552Z,53.23
2018-04-01T18:54:55.151Z,51.13
2018-04-01T18:57:23.270Z,49.58
2018-04-01T18:59:50.871Z,52.90
2018-04-01T19:02:18.468Z,56.10
2018-04-01T19:04:46.172Z,59.17
2018-04-01T19:07:13.871Z,56.50
2018-04-01T19:09:41.440Z,53.17
2018-04-01T19:12:09.027Z,51.80
2018-04-01T19:14:36.689Z,52.20
2018-04-01T19:17:08.237Z,50.27
2018-04-01T19:19:36.675Z,47.77
2018-04-01T19:22:05.086Z,50.13
2018-04-01T19:24:33.499Z,53.63
2018-04-01T19:27:01.914Z,77.07
2018-04-01T19:29:30.294Z,70.97
2018-04-01T19:31:58.832Z,72.95
2018-04-01T19:34:27.208Z,69.47
2018-04-01T19:36:55.696Z,70.37
2018-04-01T19:39:24.071Z,77.10
2018-04-01T19:41:52.513Z,59.20
2018-04-01T19:44:20.921Z,63.23
2018-04-01T19:46:49.330Z,65.18
2018-04-01T19:49:17.768Z,63.97
2018-04-01T19:51:46.200Z,62.57
2018-04-01T19:54:14.581Z,64.10
2018-04-01T19:56:43.075Z,63.13
2018-04-01T19:59:11.487Z,58.03
2018-04-01T20:01:39.918Z,57.62
2018-04-01T20:04:08.297Z,54.10
2018-04-01T20:06:36.925Z,55.40
2018-04-01T20:09:06.215Z,57.63
2018-04-01T20:11:34.680Z,55.20
2018-04-01T20:14:03.173Z,53.30
2018-04-01T20:16:31.583Z,54.70
2018-04-01T20:19:00.009Z,57.53
2018-04-01T20:21:28.434Z,54.17
2018-04-01T20:23:56.896Z,57.07
2018-04-01T20:26:25.367Z,57.93
2018-04-01T20:28:53.806Z,63.15
2018-04-01T20:31:22.203Z,68.37
2018-04-01T20:33:50.628Z,70.03
2018-04-01T20:36:19.029Z,65.50
2018-04-01T20:38:47.492Z,59.40
2018-04-01T20:41:15.902Z,61.17
2018-04-01T20:43:44.368Z,62.95
2018-04-01T20:46:12.780Z,64.53
2018-04-01T20:48:41.211Z,64.82
2018-04-01T20:51:09.670Z,66.80
2018-04-01T20:53:38.111Z,69.33
2018-04-01T20:56:06.594Z,65.82
2018-04-01T20:58:35.066Z,65.50
2018-04-01T21:01:03.486Z,64.57
2018-04-01T21:03:31.962Z,65.40
2018-04-01T21:06:00.370Z,62.77
2018-04-01T21:08:28.795Z,57.70
2018-04-01T21:10:57.195Z,61.92
2018-04-01T21:13:25.629Z,61.08
2018-04-01T21:15:54.210Z,58.72
2018-04-01T21:18:22.612Z,57.43
2018-04-01T21:20:51.012Z,55.47
2018-04-01T21:23:19.446Z,56.88
2018-04-01T21:25:47.883Z,57.42
2018-04-01T21:28:16.365Z,58.55
2018-04-01T21:30:44.791Z,58.97
2018-04-01T21:33:13.167Z,60.10
2018-04-01T21:35:41.554Z,65.75
2018-04-01T21:38:10.008Z,66.00
2018-04-01T21:40:38.438Z,63.55
2018-04-01T21:43:06.816Z,68.47
2018-04-01T21:45:35.256Z,66.12
2018-04-01T21:48:03.606Z,69.40
2018-04-01T21:50:31.984Z,70.32
2018-04-01T21:53:00.408Z,70.45
2018-04-01T21:55:28.784Z,67.30
2018-04-01T21:57:57.173Z,74.40
2018-04-01T22:00:25.552Z,65.60
2018-04-01T22:02:53.935Z,66.93
2018-04-01T22:05:22.360Z,66.20
2018-04-01T22:07:50.781Z,62.05
2018-04-01T22:10:19.432Z,66.10
2018-04-01T22:12:47.940Z,64.55
2018-04-01T22:15:16.352Z,62.40
2018-04-01T22:17:45.805Z,66.65
2018-04-01T22:20:14.228Z,67.03
2018-04-01T22:22:54.367Z,67.87
2018-04-01T22:25:22.776Z,60.60
2018-04-01T22:27:51.239Z,65.40
2018-04-01T22:30:19.628Z,65.53
2018-04-01T22:32:48.119Z,64.43
2018-04-01T22:35:16.610Z,64.18
2018-04-01T22:37:45.028Z,58.50
2018-04-01T22:40:13.442Z,59.58
2018-04-01T22:42:41.848Z,59.35
2018-04-01T22:45:10.279Z,58.85
2018-04-01T22:47:38.743Z,69.37
2018-04-01T22:50:07.421Z,66.72
2018-04-01T22:52:35.902Z,62.42
2018-04-01T22:55:04.313Z,65.78
2018-04-01T22:57:32.718Z,62.78
2018-04-01T23:00:01.267Z,57.78
2018-04-01T23:02:29.387Z,61.33
2018-04-01T23:04:57.885Z,55.67
2018-04-01T23:07:26.297Z,57.20
2018-04-01T23:09:54.716Z,54.88
2018-04-01T23:12:23.188Z,54.47
2018-04-01T23:14:51.592Z,52.03
2018-04-01T23:17:20.019Z,52.42
2018-04-01T23:19:48.435Z,52.00
2018-04-01T23:22:16.844Z,54.85
2018-04-01T23:24:45.263Z,55.72
2018-04-01T23:27:13.765Z,56.92
2018-04-01T23:29:42.344Z,58.83
2018-04-01T23:32:10.742Z,62.53
2018-04-01T23:34:39.172Z,66.15
2018-04-01T23:37:07.881Z,67.87
2018-04-01T23:39:36.420Z,61.95
2018-04-01T23:42:04.920Z,62.45
2018-04-01T23:44:33.318Z,62.40
2018-04-01T23:47:01.746Z,60.92
2018-04-01T23:49:30.150Z,64.62
2018-04-01T23:51:58.601Z,64.78
2018-04-01T23:54:27.032Z,62.20
2018-04-01T23:56:55.432Z,61.30
2018-04-01T23:59:23.875Z,66.45
